Terminal Aerodrome Forecast
Issued by NWS

Home | Current Version | Previous Version | Text Only | Print | Product List | Glossary On
Versions: 1 2 3 4 5 6 7 8 9 10 11 12 13 14 15 16 17
000
FTAK31 PAJN 312340
TAFAKT
TAF
PAKT 312340Z 0100/0124 14010KT P6SM VCSH FEW005 SCT025 OVC040
      TEMPO 0100/0104 13015KT 6SM -SHRA BR SCT005 OVC025
     FM011100 VRB05KT 3SM BR FEW002 BKN010 OVC025
     FM011600 34010KT P6SM SCT025 SCT040 BKN060=

USA.gov is the U.S. government's official web portal to all federal, state and local government web resources and services.